sim
Sign-in with your pilot id or email,
or register
Callsign
Passwort

Schedule Details

Flight Number: OEC1997
Departure: Thessaloniki International Airport (LGTS) at 11:45Z
Arrival: London Gatwick Airport (EGKK) at 14:55Z
Route: FSK4A FSK UL608 DISOR DCT LONTA UL608 DOLEV DCT RUDIK DCT NEMEK DCT TIBRO Y9 NAXAV Z613 SAFFA UZ613 RONAG UL613 RLP UT10 NITAR UQ220 KESAX UT421 KUNAV TIMB4B

Weather Information
Getting current METAR information for LGTS 252120Z 00000KT CAVOK 15/12 Q1020 NOSIG
Getting current METAR information for EGKK 252120Z 16004KT 130V190 9999 FEW031 09/08 Q1005

Schedule Frequency

Route Map